Time;durP1;ratioP1;P1;durP2;ratioP2;P2;SDS_P1;SDS_P2;PMS_P1;PMS_P2;Temp;Humidity;BMP_temperature;BMP_pressure;BME280_temperature;BME280_humidity;BME280_pressure;Samples;Min_cycle;Max_cycle;Signal;HPM_P1;HPM_P2
2022/04/13 00:01:03;;;;;;;0.10;0.10;;;;;;;-145.06;100.00;63404.56;10433509;28;20035;-68
2022/04/13 00:06:04;;;;;;;0.10;0.10;;;;;;;-145.06;100.00;63404.56;10430764;28;20025;-65
2022/04/13 00:11:04;;;;;;;0.00;0.00;;;;;;;-145.06;100.00;63404.56;10436747;28;20013;-66
2022/04/13 00:16:05;;;;;;;0.05;0.05;;;;;;;-145.06;100.00;63404.56;10421451;28;20024;-66
2022/04/13 00:21:05;;;;;;;0.10;0.10;;;;;;;-145.06;100.00;63404.56;10430402;28;20100;-65
2022/04/13 00:26:05;;;;;;;0.13;0.13;;;;;;;-145.06;100.00;63404.56;10432552;28;20503;-65
2022/04/13 00:31:06;;;;;;;0.10;0.10;;;;;;;-145.06;100.00;63404.56;10433238;28;20074;-65
2022/04/13 00:36:06;;;;;;;0.00;0.00;;;;;;;-145.06;100.00;63404.56;10418707;28;20026;-65
2022/04/13 00:41:07;;;;;;;0.10;0.10;;;;;;;-145.06;100.00;63404.56;10425802;28;20025;-65
2022/04/13 00:46:07;;;;;;;0.10;0.10;;;;;;;-145.06;100.00;63404.56;10423977;28;20025;-65
2022/04/13 00:51:07;;;;;;;0.10;0.10;;;;;;;-145.06;100.00;63404.56;10422190;28;20388;-65
2022/04/13 00:56:09;;;;;;;0.10;0.10;;;;;;;-145.06;100.00;63404.56;10436856;28;20488;-65
2022/04/13 01:01:10;;;;;;;0.10;0.10;;;;;;;-145.06;100.00;63404.56;10424933;28;20028;-65
2022/04/13 01:06:10;;;;;;;0.10;0.10;;;;;;;-145.06;100.00;63404.56;10430943;28;20033;-65
2022/04/13 01:11:11;;;;;;;0.10;0.10;;;;;;;-145.06;100.00;63404.56;10419184;28;20096;-65
2022/04/13 01:16:12;;;;;;;0.00;0.00;;;;;;;-145.06;100.00;63404.56;10425582;28;20120;-65
2022/04/13 01:21:13;;;;;;;0.10;0.10;;;;;;;-145.06;100.00;63404.56;10433623;28;20095;-65
2022/04/13 01:26:13;;;;;;;0.10;0.10;;;;;;;-145.06;100.00;63404.56;10427631;28;20101;-65
2022/04/13 01:31:14;;;;;;;0.10;0.10;;;;;;;-145.06;100.00;63404.56;10423884;28;20021;-66
2022/04/13 01:36:14;;;;;;;0.10;0.10;;;;;;;-145.06;100.00;63404.56;10445273;28;20023;-65
2022/04/13 01:41:14;;;;;;;0.10;0.10;;;;;;;-145.06;100.00;63404.56;10443725;28;20026;-65
2022/04/13 01:46:15;;;;;;;0.00;0.00;;;;;;;-145.06;100.00;63404.56;10422778;28;20483;-65
2022/04/13 01:51:17;;;;;;;0.10;0.10;;;;;;;-145.06;100.00;63404.56;10443789;28;20116;-65
2022/04/13 01:56:18;;;;;;;0.10;0.10;;;;;;;-145.06;100.00;63404.56;10440974;28;20027;-65
2022/04/13 02:01:19;;;;;;;0.10;0.10;;;;;;;-145.06;100.00;63404.56;10420243;28;20590;-65
2022/04/13 02:06:19;;;;;;;0.10;0.10;;;;;;;-145.06;100.00;63404.56;10431151;28;20025;-65
2022/04/13 02:11:19;;;;;;;0.10;0.10;;;;;;;-145.06;100.00;63404.56;10443507;28;20387;-65
2022/04/13 02:16:20;;;;;;;0.10;0.10;;;;;;;-145.06;100.00;63404.56;10439409;28;20029;-66
2022/04/13 02:21:20;;;;;;;0.00;0.00;;;;;;;-145.06;100.00;63404.56;10437356;28;20030;-66
2022/04/13 02:26:22;;;;;;;0.10;0.10;;;;;;;-145.06;100.00;63404.56;10430925;28;20104;-65
2022/04/13 02:31:22;;;;;;;0.10;0.10;;;;;;;-145.06;100.00;63404.56;10428874;28;20020;-65
2022/04/13 02:36:23;;;;;;;0.10;0.10;;;;;;;-145.06;100.00;63404.56;10431096;28;20032;-65
2022/04/13 02:41:23;;;;;;;0.10;0.10;;;;;;;-145.06;100.00;63404.56;10437425;28;20053;-67
2022/04/13 02:46:23;;;;;;;0.00;0.00;;;;;;;-145.06;100.00;63404.56;10429266;28;20268;-65
2022/04/13 02:51:23;;;;;;;0.10;0.10;;;;;;;-145.06;100.00;63404.56;10433524;28;20420;-65
2022/04/13 02:56:24;;;;;;;0.10;0.10;;;;;;;-145.06;100.00;63404.56;10446098;28;20052;-66
2022/04/13 03:01:24;;;;;;;0.10;0.10;;;;;;;-145.06;100.00;63404.56;10444417;28;20112;-66
2022/04/13 03:06:24;;;;;;;0.10;0.10;;;;;;;-145.06;100.00;63404.56;10432198;28;20021;-66
2022/04/13 03:11:25;;;;;;;0.10;0.10;;;;;;;-145.06;100.00;63404.56;10433554;28;20476;-65
2022/04/13 03:16:25;;;;;;;0.10;0.10;;;;;;;-145.06;100.00;63404.56;10429055;28;20026;-66
2022/04/13 03:21:25;;;;;;;0.10;0.10;;;;;;;-145.06;100.00;63404.56;10421357;28;20279;-66
2022/04/13 03:26:26;;;;;;;0.00;0.00;;;;;;;-145.06;100.00;63404.56;10448459;28;20400;-64
2022/04/13 03:31:26;;;;;;;0.00;0.00;;;;;;;-145.06;100.00;63404.56;10436936;28;20094;-65
2022/04/13 03:36:26;;;;;;;0.10;0.10;;;;;;;-145.06;100.00;63404.56;10434282;28;20025;-64
2022/04/13 03:41:27;;;;;;;0.10;0.10;;;;;;;-145.06;100.00;63404.56;10423951;28;20021;-64
2022/04/13 03:46:27;;;;;;;0.10;0.10;;;;;;;-145.06;100.00;63404.56;10415701;28;20024;-66
2022/04/13 03:51:27;;;;;;;0.00;0.00;;;;;;;-145.06;100.00;63404.56;10423764;28;20465;-66
2022/04/13 03:56:29;;;;;;;0.00;0.00;;;;;;;-145.06;100.00;63404.56;10444594;28;20542;-65
2022/04/13 04:01:31;;;;;;;0.10;0.10;;;;;;;-145.06;100.00;63404.56;10411945;28;20416;-65
2022/04/13 04:06:31;;;;;;;0.10;0.10;;;;;;;-145.06;100.00;63404.56;10408665;28;20036;-65
2022/04/13 04:11:32;;;;;;;0.10;0.10;;;;;;;-145.06;100.00;63404.56;10429404;28;20112;-64
2022/04/13 04:16:32;;;;;;;0.10;0.10;;;;;;;-145.06;100.00;63404.56;10422412;28;20025;-65
2022/04/13 04:21:32;;;;;;;0.00;0.00;;;;;;;-145.06;100.00;63404.56;10425840;28;20312;-65
2022/04/13 04:26:33;;;;;;;0.03;0.03;;;;;;;-145.06;100.00;63404.56;10429604;28;20057;-65
2022/04/13 04:31:51;;;;;;;0.05;0.05;;;;;;;-145.06;100.00;63404.56;10421042;28;20052;-66
2022/04/13 04:36:51;;;;;;;0.00;0.00;;;;;;;-145.06;100.00;63404.56;10419626;28;20018;-65
2022/04/13 04:41:52;;;;;;;0.10;0.10;;;;;;;-145.06;100.00;63404.56;10421738;28;20047;-65
2022/04/13 04:46:52;;;;;;;0.10;0.10;;;;;;;-145.06;100.00;63404.56;10393157;28;20272;-65
2022/04/13 04:51:53;;;;;;;0.00;0.00;;;;;;;-145.06;100.00;63404.56;10425043;28;20443;-66
2022/04/13 04:56:53;;;;;;;0.00;0.00;;;;;;;-145.06;100.00;63404.56;10413097;28;20487;-66
2022/04/13 05:01:53;;;;;;;0.10;0.10;;;;;;;-145.06;100.00;63404.56;10419114;28;20022;-65
2022/04/13 05:06:53;;;;;;;0.00;0.00;;;;;;;-145.06;100.00;63404.56;10409578;28;20021;-65
2022/04/13 05:11:54;;;;;;;0.10;0.10;;;;;;;-145.06;100.00;63404.56;10423303;28;20260;-65
2022/04/13 05:16:54;;;;;;;0.10;0.10;;;;;;;-145.06;100.00;63404.56;10429168;28;20114;-66
2022/04/13 05:21:54;;;;;;;0.10;0.10;;;;;;;-145.06;100.00;63404.56;10431287;28;20021;-65
2022/04/13 05:26:55;;;;;;;0.00;0.00;;;;;;;-145.06;100.00;63404.56;10427028;28;20024;-65
2022/04/13 05:31:55;;;;;;;0.10;0.10;;;;;;;-145.06;100.00;63404.56;10429127;28;20021;-64
2022/04/13 05:36:56;;;;;;;0.10;0.10;;;;;;;-145.06;100.00;63404.56;10424835;28;20029;-65
2022/04/13 05:41:56;;;;;;;0.05;0.05;;;;;;;-145.06;100.00;63404.56;10421262;28;20021;-65
2022/04/13 05:46:56;;;;;;;0.10;0.10;;;;;;;-145.06;100.00;63404.56;10428787;28;20056;-64
2022/04/13 05:51:57;;;;;;;0.10;0.10;;;;;;;-145.06;100.00;63404.56;10427156;28;20021;-65
2022/04/13 05:56:57;;;;;;;0.10;0.10;;;;;;;-145.06;100.00;63404.56;10430105;28;20025;-65
2022/04/13 06:01:57;;;;;;;0.00;0.00;;;;;;;-145.06;100.00;63404.56;10424877;28;20070;-65
2022/04/13 06:06:59;;;;;;;0.00;0.00;;;;;;;-145.06;100.00;63404.56;10433035;28;20275;-65
2022/04/13 06:11:59;;;;;;;0.10;0.10;;;;;;;-145.06;100.00;63404.56;10426162;28;20026;-65
2022/04/13 06:17:00;;;;;;;0.10;0.10;;;;;;;-145.06;100.00;63404.56;10430219;28;21450;-65
2022/04/13 06:22:00;;;;;;;0.10;0.10;;;;;;;-145.06;100.00;63404.56;10432744;28;20031;-65
2022/04/13 06:27:00;;;;;;;0.10;0.10;;;;;;;-145.06;100.00;63404.56;10432376;28;20268;-65
2022/04/13 06:32:00;;;;;;;0.10;0.10;;;;;;;-145.06;100.00;63404.56;10427493;28;20021;-65
2022/04/13 06:37:01;;;;;;;0.10;0.10;;;;;;;-145.06;100.00;63404.56;10427017;28;20029;-65
2022/04/13 06:42:02;;;;;;;0.10;0.10;;;;;;;-145.06;100.00;63404.56;10423503;28;20022;-65
2022/04/13 06:47:03;;;;;;;0.00;0.00;;;;;;;-145.06;100.00;63404.56;10424389;28;20052;-65
2022/04/13 06:52:03;;;;;;;0.00;0.00;;;;;;;-145.06;100.00;63404.56;10416752;28;20068;-65
2022/04/13 06:57:04;;;;;;;0.00;0.00;;;;;;;-145.06;100.00;63404.56;10426212;28;20022;-65
2022/04/13 07:02:10;;;;;;;0.10;0.10;;;;;;;-145.06;100.00;63404.56;10427439;28;20392;-65
2022/04/13 07:07:10;;;;;;;0.10;0.10;;;;;;;-145.06;100.00;63404.56;10423398;28;20029;-65
2022/04/13 07:12:11;;;;;;;0.10;0.10;;;;;;;-145.06;100.00;63404.56;10420928;28;20025;-65
2022/04/13 07:17:11;;;;;;;0.10;0.10;;;;;;;-145.06;100.00;63404.56;10427001;28;20379;-65
2022/04/13 07:22:11;;;;;;;0.10;0.10;;;;;;;-145.06;100.00;63404.56;10434800;28;20401;-66
2022/04/13 07:27:12;;;;;;;0.10;0.10;;;;;;;-145.06;100.00;63404.56;10408670;28;20025;-65
2022/04/13 07:32:12;;;;;;;0.10;0.10;;;;;;;-145.06;100.00;63404.56;10408705;28;20013;-65
2022/04/13 07:37:12;;;;;;;0.10;0.10;;;;;;;-145.06;100.00;63404.56;10407219;28;20059;-66
2022/04/13 07:42:20;;;;;;;0.10;0.10;;;;;;;-145.06;100.00;63404.56;10415255;28;20029;-65
2022/04/13 07:47:22;;;;;;;0.08;0.08;;;;;;;-145.06;100.00;63404.56;10404508;28;20045;-65
2022/04/13 07:52:23;;;;;;;0.00;0.00;;;;;;;-145.06;100.00;63404.56;10420033;28;20048;-65
2022/04/13 07:57:23;;;;;;;0.00;0.00;;;;;;;-145.06;100.00;63404.56;10439678;28;20498;-66
2022/04/13 08:02:24;;;;;;;0.10;0.10;;;;;;;-145.06;100.00;63404.56;10425279;28;20023;-65
2022/04/13 08:07:25;;;;;;;0.00;0.00;;;;;;;-145.06;100.00;63404.56;10406848;28;20017;-65
2022/04/13 08:12:30;;;;;;;0.08;0.08;;;;;;;-145.06;100.00;63404.56;10414325;28;20022;-65
2022/04/13 08:17:30;;;;;;;0.10;0.10;;;;;;;-145.06;100.00;63404.56;10407329;28;20036;-65
2022/04/13 08:22:30;;;;;;;0.00;0.00;;;;;;;-145.06;100.00;63404.56;10407567;28;20026;-65
2022/04/13 08:27:31;;;;;;;0.10;0.10;;;;;;;-145.06;100.00;63404.56;10407223;28;20112;-65
2022/04/13 08:32:31;;;;;;;0.10;0.10;;;;;;;-145.06;100.00;63404.56;10421623;28;20078;-65
2022/04/13 08:37:33;;;;;;;0.00;0.00;;;;;;;-145.06;100.00;63404.56;10418353;28;20275;-65
2022/04/13 08:43:11;;;;;;;0.00;0.00;;;;;;;-145.06;100.00;63404.56;10407692;28;20026;-65
2022/04/13 08:48:12;;;;;;;0.00;0.00;;;;;;;-145.06;100.00;63404.56;10379658;28;20045;-65
2022/04/13 08:53:17;;;;;;;0.00;0.00;;;;;;;-145.06;100.00;63404.56;10418316;28;20033;-65
2022/04/13 08:58:28;;;;;;;0.00;0.00;;;;;;;-145.06;100.00;63404.56;10413883;28;20029;-65
2022/04/13 09:03:48;;;;;;;0.00;0.00;;;;;;;-145.06;100.00;63404.56;10415054;28;20082;-65
2022/04/13 09:08:52;;;;;;;0.10;0.10;;;;;;;-145.06;100.00;63404.56;10423675;28;20024;-65
2022/04/13 09:13:54;;;;;;;0.10;0.10;;;;;;;-145.06;100.00;63404.56;10421689;28;20079;-65
2022/04/13 09:18:55;;;;;;;0.00;0.00;;;;;;;-145.06;100.00;63404.56;10417966;28;20060;-65
2022/04/13 09:23:55;;;;;;;0.10;0.10;;;;;;;-145.06;100.00;63404.56;10414647;28;20075;-65
2022/04/13 09:28:56;;;;;;;0.10;0.10;;;;;;;-145.06;100.00;63404.56;10394644;28;20080;-65
2022/04/13 09:33:56;;;;;;;0.00;0.00;;;;;;;-145.06;100.00;63404.56;10414730;28;20263;-65
2022/04/13 09:38:57;;;;;;;0.00;0.00;;;;;;;-145.06;100.00;63404.56;10413456;28;20639;-65
2022/04/13 09:43:57;;;;;;;0.00;0.00;;;;;;;-145.06;100.00;63404.56;10424517;28;20047;-65
2022/04/13 09:49:30;;;;;;;0.00;0.00;;;;;;;-145.06;100.00;63404.56;10417526;28;20151;-65
2022/04/13 09:54:31;;;;;;;0.10;0.10;;;;;;;-145.06;100.00;63404.56;10389111;28;20807;-65
2022/04/13 09:59:32;;;;;;;0.10;0.10;;;;;;;-145.06;100.00;63404.56;10411964;28;20021;-65
2022/04/13 10:04:32;;;;;;;0.10;0.10;;;;;;;-145.06;100.00;63404.56;10411967;28;20021;-66
2022/04/13 10:09:32;;;;;;;0.10;0.10;;;;;;;-145.06;100.00;63404.56;10412883;28;20473;-66
2022/04/13 10:14:33;;;;;;;0.07;0.07;;;;;;;-145.06;100.00;63404.56;10417461;28;20029;-66
2022/04/13 10:19:34;;;;;;;0.00;0.00;;;;;;;-145.06;100.00;63404.56;10412219;28;20022;-66
2022/04/13 10:24:40;;;;;;;0.10;0.10;;;;;;;-145.06;100.00;63404.56;10439158;28;20029;-66
2022/04/13 10:29:43;;;;;;;0.00;0.00;;;;;;;-145.06;100.00;63404.56;10444863;28;20025;-66
2022/04/13 10:34:45;;;;;;;0.10;0.10;;;;;;;-145.06;100.00;63404.56;10424616;28;20147;-66
2022/04/13 10:39:47;;;;;;;0.10;0.10;;;;;;;-145.06;100.00;63404.56;10410883;28;20029;-66
2022/04/13 10:45:03;;;;;;;0.10;0.10;;;;;;;-145.06;100.00;63404.56;10414812;28;20566;-66
2022/04/13 10:50:06;;;;;;;0.00;0.00;;;;;;;-145.06;100.00;63404.56;10410586;28;20045;-66
2022/04/13 10:55:12;;;;;;;0.00;0.00;;;;;;;-145.06;100.00;63404.56;10411036;28;20028;-66
2022/04/13 11:00:16;;;;;;;0.00;0.00;;;;;;;-145.06;100.00;63404.56;10411176;28;20040;-66
2022/04/13 11:05:16;;;;;;;0.00;0.00;;;;;;;-145.06;100.00;63404.56;10420072;28;20051;-66
2022/04/13 11:10:19;;;;;;;0.00;0.00;;;;;;;-145.06;100.00;63404.56;10410839;28;20067;-66
2022/04/13 11:15:37;;;;;;;0.10;0.10;;;;;;;-145.06;100.00;63404.56;10409402;28;20030;-66
2022/04/13 11:20:58;;;;;;;0.08;0.08;;;;;;;-145.06;100.00;63404.56;10410384;28;20036;-66
2022/04/13 11:26:01;;;;;;;0.00;0.00;;;;;;;-145.06;100.00;63404.56;10408777;28;20035;-66
2022/04/13 11:31:07;;;;;;;0.00;0.00;;;;;;;-145.06;100.00;63404.56;10408348;28;20013;-66
2022/04/13 11:36:07;;;;;;;0.00;0.00;;;;;;;-145.06;100.00;63404.56;10409701;28;20053;-66
2022/04/13 11:41:08;;;;;;;0.00;0.00;;;;;;;-145.06;100.00;63404.56;10421841;28;20451;-66
2022/04/13 11:46:39;;;;;;;0.10;0.10;;;;;;;-145.06;100.00;63404.56;10413495;28;20048;-66
2022/04/13 11:51:39;;;;;;;0.00;0.00;;;;;;;-145.06;100.00;63404.56;10415325;28;20120;-67
2022/04/13 11:56:39;;;;;;;0.10;0.10;;;;;;;-145.06;100.00;63404.56;10408958;28;20110;-67
2022/04/13 12:01:52;;;;;;;0.00;0.00;;;;;;;-145.06;100.00;63404.56;10408071;28;20461;-67
2022/04/13 12:06:53;;;;;;;0.00;0.00;;;;;;;-145.06;100.00;63404.56;10408783;28;20433;-67
2022/04/13 12:11:55;;;;;;;0.10;0.10;;;;;;;-145.06;100.00;63404.56;10407427;28;20476;-67
2022/04/13 12:16:57;;;;;;;0.10;0.10;;;;;;;-145.06;100.00;63404.56;10402914;28;20024;-67
2022/04/13 12:21:57;;;;;;;0.00;0.00;;;;;;;-145.06;100.00;63404.56;10409851;28;20018;-67
2022/04/13 12:26:58;;;;;;;0.10;0.10;;;;;;;-145.06;100.00;63404.56;10405366;28;20571;-67
2022/04/13 12:31:58;;;;;;;0.10;0.10;;;;;;;-145.06;100.00;63404.56;10403875;28;20021;-67
2022/04/13 12:37:01;;;;;;;0.00;0.00;;;;;;;-145.06;100.00;63404.56;10408118;28;20088;-67
2022/04/13 12:42:04;;;;;;;0.10;0.10;;;;;;;-145.06;100.00;63404.56;10408743;28;20759;-67
2022/04/13 12:47:10;;;;;;;0.10;0.10;;;;;;;-145.06;100.00;63404.56;10407543;28;20078;-67
2022/04/13 12:52:11;;;;;;;0.00;0.00;;;;;;;-145.06;100.00;63404.56;10408383;28;20022;-67
2022/04/13 12:57:11;;;;;;;0.00;0.00;;;;;;;-145.06;100.00;63404.56;10408134;28;20387;-67
2022/04/13 13:02:18;;;;;;;0.00;0.00;;;;;;;-145.06;100.00;63404.56;10409018;28;20072;-67
2022/04/13 13:07:29;;;;;;;0.00;0.00;;;;;;;-145.06;100.00;63404.56;10406967;28;20550;-67
2022/04/13 13:12:33;;;;;;;0.00;0.00;;;;;;;-145.06;100.00;63404.56;10376135;28;20033;-67
2022/04/13 13:17:42;;;;;;;0.00;0.00;;;;;;;-145.06;100.00;63404.56;10381997;28;20387;-67
2022/04/13 13:22:46;;;;;;;0.10;0.10;;;;;;;-145.06;100.00;63404.56;10379604;28;20030;-67
2022/04/13 13:27:52;;;;;;;0.00;0.00;;;;;;;-145.06;100.00;63404.56;10380715;28;20028;-67
2022/04/13 13:32:55;;;;;;;0.00;0.00;;;;;;;-145.06;100.00;63404.56;10381898;28;20055;-67
2022/04/13 13:38:07;;;;;;;0.00;0.00;;;;;;;-145.06;100.00;63404.56;10414906;28;20379;-67
2022/04/13 13:43:10;;;;;;;0.10;0.10;;;;;;;-145.06;100.00;63404.56;10419912;28;20424;-67
2022/04/13 13:48:33;;;;;;;0.00;0.00;;;;;;;-145.06;100.00;63404.56;10434694;28;20029;-67
2022/04/13 13:53:34;;;;;;;0.05;0.05;;;;;;;-145.06;100.00;63404.56;10416383;28;20056;-67
2022/04/13 13:58:34;;;;;;;0.10;0.10;;;;;;;-145.06;100.00;63404.56;10434649;28;20559;-67
2022/04/13 14:03:34;;;;;;;0.00;0.00;;;;;;;-145.06;100.00;63404.56;10418046;28;20021;-67
2022/04/13 14:08:35;;;;;;;0.10;0.10;;;;;;;-145.06;100.00;63404.56;10436106;28;20526;-67
2022/04/13 14:13:35;;;;;;;0.10;0.10;;;;;;;-145.06;100.00;63404.56;10427941;28;20025;-66
2022/04/13 14:18:35;;;;;;;0.00;0.00;;;;;;;-145.06;100.00;63404.56;10444449;28;20488;-66
2022/04/13 14:23:39;;;;;;;0.10;0.10;;;;;;;-145.06;100.00;63404.56;10436371;28;20013;-66
2022/04/13 14:28:39;;;;;;;0.00;0.00;;;;;;;-145.06;100.00;63404.56;10424011;28;20579;-66
2022/04/13 14:33:40;;;;;;;0.10;0.10;;;;;;;-145.06;100.00;63404.56;10399816;28;20056;-66
2022/04/13 14:38:41;;;;;;;0.00;0.00;;;;;;;-145.06;100.00;63404.56;10439236;28;20389;-66
2022/04/13 14:43:42;;;;;;;0.00;0.00;;;;;;;-145.06;100.00;63404.56;10418164;28;20029;-66
2022/04/13 14:48:42;;;;;;;0.00;0.00;;;;;;;-145.06;100.00;63404.56;10381215;28;20037;-66
2022/04/13 14:53:42;;;;;;;0.00;0.00;;;;;;;-145.06;100.00;63404.56;10388095;28;20032;-66
2022/04/13 14:58:43;;;;;;;0.00;0.00;;;;;;;-145.06;100.00;63404.56;10384052;28;20531;-66
2022/04/13 15:03:43;;;;;;;0.10;0.10;;;;;;;-145.06;100.00;63404.56;10385524;28;20423;-66
2022/04/13 15:08:43;;;;;;;0.00;0.00;;;;;;;-145.06;100.00;63404.56;10379517;28;20025;-66
2022/04/13 15:13:44;;;;;;;0.10;0.10;;;;;;;-145.06;100.00;63404.56;10375312;28;20053;-66
2022/04/13 15:18:44;;;;;;;0.00;0.00;;;;;;;-145.06;100.00;63404.56;10376694;28;20136;-66
2022/04/13 15:23:45;;;;;;;0.00;0.00;;;;;;;-145.06;100.00;63404.56;10375425;28;20477;-66
2022/04/13 15:28:45;;;;;;;0.10;0.10;;;;;;;-145.06;100.00;63404.56;10376739;28;20021;-66
2022/04/13 15:33:46;;;;;;;0.10;0.10;;;;;;;-145.06;100.00;63404.56;10377820;28;20033;-66
2022/04/13 15:38:46;;;;;;;0.10;0.10;;;;;;;-145.06;100.00;63404.56;10374956;28;20041;-66
2022/04/13 15:43:47;;;;;;;0.10;0.10;;;;;;;-145.06;100.00;63404.56;10376795;28;20100;-66
2022/04/13 15:48:47;;;;;;;0.10;0.10;;;;;;;-145.06;100.00;63404.56;10377014;28;20060;-66
2022/04/13 15:53:48;;;;;;;0.00;0.00;;;;;;;-145.06;100.00;63404.56;10399336;28;20484;-66
2022/04/13 15:58:48;;;;;;;0.00;0.00;;;;;;;-145.06;100.00;63404.56;10399927;28;20025;-66
2022/04/13 16:03:49;;;;;;;0.10;0.10;;;;;;;-145.06;100.00;63404.56;10403240;28;20125;-66
2022/04/13 16:08:50;;;;;;;0.10;0.10;;;;;;;-145.06;100.00;63404.56;10405502;28;20030;-67
2022/04/13 16:13:50;;;;;;;0.10;0.10;;;;;;;-145.06;100.00;63404.56;10403491;28;20022;-66
2022/04/13 16:18:50;;;;;;;0.10;0.10;;;;;;;-145.06;100.00;63404.56;10407736;28;20283;-66
2022/04/13 16:23:53;;;;;;;0.10;0.10;;;;;;;-145.06;100.00;63404.56;10396204;28;20028;-66
2022/04/13 16:28:53;;;;;;;0.00;0.00;;;;;;;-145.06;100.00;63404.56;10401314;28;20017;-66
2022/04/13 16:33:53;;;;;;;0.10;0.10;;;;;;;-145.06;100.00;63404.56;10401724;28;20029;-66
2022/04/13 16:38:54;;;;;;;0.10;0.10;;;;;;;-145.06;100.00;63404.56;10402034;28;20032;-66
2022/04/13 16:43:54;;;;;;;0.10;0.10;;;;;;;-145.06;100.00;63404.56;10401514;28;20026;-66
2022/04/13 16:48:54;;;;;;;0.10;0.10;;;;;;;-145.06;100.00;63404.56;10401198;28;20256;-66
2022/04/13 16:53:55;;;;;;;0.07;0.07;;;;;;;-145.06;100.00;63404.56;10400676;28;20085;-66
2022/04/13 16:58:55;;;;;;;0.00;0.00;;;;;;;-145.06;100.00;63404.56;10402226;28;20284;-66
2022/04/13 17:03:56;;;;;;;0.10;0.10;;;;;;;-145.06;100.00;63404.56;10403016;28;20305;-66
2022/04/13 17:08:56;;;;;;;0.10;0.10;;;;;;;-145.06;100.00;63404.56;10403902;28;20575;-66
2022/04/13 17:13:57;;;;;;;0.10;0.10;;;;;;;-145.06;100.00;63404.56;10408953;28;20032;-66
2022/04/13 17:18:57;;;;;;;0.10;0.10;;;;;;;-145.06;100.00;63404.56;10396677;28;20029;-67
2022/04/13 17:23:59;;;;;;;0.13;0.13;;;;;;;-145.06;100.00;63404.56;10407925;28;20439;-67
2022/04/13 17:28:59;;;;;;;0.00;0.00;;;;;;;-145.06;100.00;63404.56;10409836;28;20025;-67
2022/04/13 17:33:59;;;;;;;0.10;0.10;;;;;;;-145.06;100.00;63404.56;10408583;28;20029;-67
2022/04/13 17:39:00;;;;;;;0.10;0.10;;;;;;;-145.06;100.00;63404.56;10407184;28;20022;-67
2022/04/13 17:44:00;;;;;;;0.10;0.10;;;;;;;-145.06;100.00;63404.56;10408552;28;20021;-66
2022/04/13 17:49:00;;;;;;;0.10;0.10;;;;;;;-145.06;100.00;63404.56;10443883;22;20037;-66
2022/04/13 17:54:01;;;;;;;0.10;0.10;;;;;;;-145.06;100.00;63404.56;10458969;28;20024;-66
2022/04/13 17:59:03;;;;;;;0.10;0.10;;;;;;;-145.06;100.00;63404.56;10417402;28;20024;-65
2022/04/13 18:04:03;;;;;;;0.10;0.10;;;;;;;-145.06;100.00;63404.56;10417864;28;20025;-66
2022/04/13 18:09:03;;;;;;;0.10;0.10;;;;;;;-145.06;100.00;63404.56;10425750;28;20013;-68
2022/04/13 18:14:04;;;;;;;0.10;0.10;;;;;;;-145.06;100.00;63404.56;10413942;28;20031;-68
2022/04/13 18:19:04;;;;;;;0.10;0.10;;;;;;;-145.06;100.00;63404.56;10421670;28;20284;-68
2022/04/13 18:24:05;;;;;;;0.10;0.10;;;;;;;-145.06;100.00;63404.56;10414095;28;20022;-67
2022/04/13 18:29:06;;;;;;;0.10;0.10;;;;;;;-145.06;100.00;63404.56;10414641;28;20252;-67
2022/04/13 18:34:06;;;;;;;0.10;0.10;;;;;;;-145.06;100.00;63404.56;10416368;28;20021;-67
2022/04/13 18:39:07;;;;;;;0.00;0.00;;;;;;;-145.06;100.00;63404.56;10416419;28;20476;-67
2022/04/13 18:44:08;;;;;;;0.10;0.10;;;;;;;-145.06;100.00;63404.56;10424479;28;20036;-67
2022/04/13 18:49:08;;;;;;;0.10;0.10;;;;;;;-145.06;100.00;63404.56;10423277;28;20490;-67
2022/04/13 18:54:09;;;;;;;0.10;0.10;;;;;;;-145.06;100.00;63404.56;10414704;28;20029;-67
2022/04/13 18:59:10;;;;;;;0.10;0.10;;;;;;;-145.06;100.00;63404.56;10411046;28;20030;-67
2022/04/13 19:04:10;;;;;;;0.10;0.10;;;;;;;-145.06;100.00;63404.56;10413041;28;20022;-67
2022/04/13 19:09:12;;;;;;;0.10;0.10;;;;;;;-145.06;100.00;63404.56;10412485;28;20100;-68
2022/04/13 19:14:12;;;;;;;0.10;0.10;;;;;;;-145.06;100.00;63404.56;10427928;28;20100;-68
2022/04/13 19:19:13;;;;;;;0.10;0.10;;;;;;;-145.06;100.00;63404.56;10411398;28;20500;-68
2022/04/13 19:24:14;;;;;;;0.10;0.10;;;;;;;-145.06;100.00;63404.56;10411948;28;20316;-68
2022/04/13 19:29:15;;;;;;;0.10;0.10;;;;;;;-145.06;100.00;63404.56;10411809;28;20030;-68
2022/04/13 19:34:15;;;;;;;0.10;0.10;;;;;;;-145.06;100.00;63404.56;10406904;28;20029;-68
2022/04/13 19:39:16;;;;;;;0.03;0.03;;;;;;;-145.06;100.00;63404.56;10410092;28;20383;-68
2022/04/13 19:44:17;;;;;;;0.10;0.10;;;;;;;-145.06;100.00;63404.56;10409004;28;20021;-68
2022/04/13 19:49:17;;;;;;;0.10;0.10;;;;;;;-145.06;100.00;63404.56;10406606;28;20045;-68
2022/04/13 19:54:18;;;;;;;0.00;0.00;;;;;;;-145.06;100.00;63404.56;10409377;28;20480;-68
2022/04/13 19:59:18;;;;;;;0.00;0.00;;;;;;;-145.06;100.00;63404.56;10408780;28;20080;-68
2022/04/13 20:04:18;;;;;;;0.10;0.10;;;;;;;-145.06;100.00;63404.56;10410822;28;20025;-68
2022/04/13 20:09:19;;;;;;;0.10;0.10;;;;;;;-145.06;100.00;63404.56;10407970;28;20156;-68
2022/04/13 20:14:19;;;;;;;0.10;0.10;;;;;;;-145.06;100.00;63404.56;10408114;28;20491;-68
2022/04/13 20:19:22;;;;;;;0.10;0.10;;;;;;;-145.06;100.00;63404.56;10407157;28;20021;-68
2022/04/13 20:24:22;;;;;;;0.10;0.10;;;;;;;-145.06;100.00;63404.56;10390330;28;20312;-67
2022/04/13 20:29:23;;;;;;;0.03;0.03;;;;;;;-145.06;100.00;63404.56;10407092;28;20021;-68
2022/04/13 20:34:23;;;;;;;0.10;0.10;;;;;;;-145.06;100.00;63404.56;10407629;28;20075;-67
2022/04/13 20:39:24;;;;;;;0.10;0.10;;;;;;;-145.06;100.00;63404.56;10406852;28;20280;-68
2022/04/13 20:44:33;;;;;;;0.10;0.10;;;;;;;-145.06;100.00;63404.56;10407734;28;20021;-68
2022/04/13 20:49:34;;;;;;;0.10;0.10;;;;;;;-145.06;100.00;63404.56;10408653;28;20392;-70
2022/04/13 20:54:35;;;;;;;0.10;0.10;;;;;;;-145.06;100.00;63404.56;10390199;28;20022;-71
2022/04/13 20:59:35;;;;;;;0.00;0.00;;;;;;;-145.06;100.00;63404.56;10406709;28;20376;-71
2022/04/13 21:04:36;;;;;;;0.10;0.10;;;;;;;-145.06;100.00;63404.56;10404604;28;20113;-70
2022/04/13 21:09:36;;;;;;;0.10;0.10;;;;;;;-145.06;100.00;63404.56;10405664;28;20460;-70
2022/04/13 21:14:37;;;;;;;0.10;0.10;;;;;;;-145.06;100.00;63404.56;10406524;28;20256;-70
2022/04/13 21:19:37;;;;;;;0.10;0.10;;;;;;;-145.06;100.00;63404.56;10405938;28;20393;-70
2022/04/13 21:24:38;;;;;;;0.10;0.10;;;;;;;-145.06;100.00;63404.56;10406723;28;20021;-70
2022/04/13 21:29:38;;;;;;;0.10;0.10;;;;;;;-145.06;100.00;63404.56;10405621;28;20044;-70
2022/04/13 21:34:39;;;;;;;0.10;0.10;;;;;;;-145.06;100.00;63404.56;10405629;28;20024;-70
2022/04/13 21:39:39;;;;;;;0.10;0.10;;;;;;;-145.06;100.00;63404.56;10405723;28;20379;-70
2022/04/13 21:44:40;;;;;;;0.00;0.00;;;;;;;-145.06;100.00;63404.56;10405995;28;20391;-69
2022/04/13 21:49:40;;;;;;;0.10;0.10;;;;;;;-145.06;100.00;63404.56;10405676;28;20025;-70
2022/04/13 21:54:40;;;;;;;0.10;0.10;;;;;;;-145.06;100.00;63404.56;10406185;28;20287;-70
2022/04/13 21:59:40;;;;;;;0.10;0.10;;;;;;;-145.06;100.00;63404.56;10413109;28;20026;-70
2022/04/13 22:04:41;;;;;;;0.10;0.10;;;;;;;-145.06;100.00;63404.56;10412738;28;20036;-70
2022/04/13 22:09:41;;;;;;;0.10;0.10;;;;;;;-145.06;100.00;63404.56;10411573;28;20021;-70
2022/04/13 22:14:42;;;;;;;0.00;0.00;;;;;;;-145.06;100.00;63404.56;10412922;28;20070;-70
2022/04/13 22:19:42;;;;;;;0.10;0.10;;;;;;;-145.06;100.00;63404.56;10411968;28;20366;-70
2022/04/13 22:24:42;;;;;;;0.10;0.10;;;;;;;-145.06;100.00;63404.56;10412399;28;20359;-70
2022/04/13 22:29:42;;;;;;;0.10;0.10;;;;;;;-145.06;100.00;63404.56;10412244;28;20260;-70
2022/04/13 22:34:43;;;;;;;0.10;0.10;;;;;;;-145.06;100.00;63404.56;10412098;28;20025;-70